createdAt,value
2018-10-02T00:01:44.739Z,6.70
2018-10-02T00:04:14.119Z,6.33
2018-10-02T00:06:43.248Z,6.20
2018-10-02T00:09:13.207Z,6.10
2018-10-02T00:11:47.583Z,7.00
2018-10-02T00:14:23.319Z,6.20
2018-10-02T00:16:52.497Z,6.30
2018-10-02T00:19:21.629Z,5.90
2018-10-02T00:21:50.801Z,6.07
2018-10-02T00:24:19.980Z,6.13
2018-10-02T00:26:49.045Z,5.80
2018-10-02T00:29:18.136Z,5.70
2018-10-02T00:31:47.205Z,6.07
2018-10-02T00:34:16.170Z,6.37
2018-10-02T00:36:45.301Z,5.87
2018-10-02T00:39:14.336Z,5.23
2018-10-02T00:41:43.320Z,5.27
2018-10-02T00:44:12.333Z,5.20
2018-10-02T00:46:41.312Z,5.20
2018-10-02T00:49:10.332Z,5.93
2018-10-02T00:51:39.337Z,5.20
2018-10-02T00:54:08.397Z,5.97
2018-10-02T00:56:37.416Z,5.10
2018-10-02T00:59:06.434Z,5.87
2018-10-02T01:01:35.435Z,5.33
2018-10-02T01:04:04.405Z,5.20
2018-10-02T01:06:33.498Z,5.27
2018-10-02T01:09:02.636Z,5.30
2018-10-02T01:11:31.664Z,5.90
2018-10-02T01:14:00.970Z,6.47
2018-10-02T01:16:30.076Z,5.87
2018-10-02T01:18:59.096Z,5.23
2018-10-02T01:21:28.143Z,4.90
2018-10-02T01:23:57.104Z,5.20
2018-10-02T01:26:26.164Z,5.87
2018-10-02T01:28:55.254Z,6.30
2018-10-02T01:31:24.337Z,5.83
2018-10-02T01:33:53.433Z,5.80
2018-10-02T01:36:22.548Z,5.97
2018-10-02T01:38:51.638Z,6.73
2018-10-02T01:41:20.702Z,5.20
2018-10-02T01:43:49.669Z,4.97
2018-10-02T01:46:18.688Z,5.30
2018-10-02T01:48:48.165Z,6.57
2018-10-02T01:51:17.174Z,6.00
2018-10-02T01:53:46.215Z,5.60
2018-10-02T01:56:15.292Z,5.57
2018-10-02T01:58:44.418Z,6.13
2018-10-02T02:01:13.445Z,5.30
2018-10-02T02:03:42.457Z,5.60
2018-10-02T02:06:11.558Z,5.43
2018-10-02T02:08:40.625Z,5.63
2018-10-02T02:11:09.638Z,5.57
2018-10-02T02:13:38.752Z,5.33
2018-10-02T02:16:07.744Z,5.43
2018-10-02T02:18:36.865Z,5.77
2018-10-02T02:21:05.905Z,6.00
2018-10-02T02:23:34.880Z,5.83
2018-10-02T02:26:03.931Z,5.33
2018-10-02T02:28:33.023Z,5.77
2018-10-02T02:31:02.124Z,5.23
2018-10-02T02:33:31.183Z,5.67
2018-10-02T02:36:00.187Z,5.03
2018-10-02T02:38:29.322Z,5.47
2018-10-02T02:40:58.342Z,5.97
2018-10-02T02:43:27.385Z,5.13
2018-10-02T02:45:57.011Z,5.23
2018-10-02T02:48:31.453Z,4.87
2018-10-02T02:51:05.773Z,5.27
2018-10-02T02:53:34.783Z,4.77
2018-10-02T02:56:03.937Z,4.67
2018-10-02T02:58:33.017Z,4.57
2018-10-02T03:01:02.077Z,4.73
2018-10-02T03:03:32.111Z,4.60
2018-10-02T03:06:01.245Z,4.97
2018-10-02T03:08:30.325Z,4.30
2018-10-02T03:10:59.465Z,4.13
2018-10-02T03:13:28.659Z,4.60
2018-10-02T03:15:57.681Z,5.37
2018-10-02T03:18:26.853Z,4.40
2018-10-02T03:20:55.875Z,4.87
2018-10-02T03:23:24.894Z,5.33
2018-10-02T03:25:53.909Z,5.70
2018-10-02T03:28:22.960Z,5.20
2018-10-02T03:30:52.014Z,4.80
2018-10-02T03:33:21.018Z,5.07
2018-10-02T03:35:50.003Z,5.37
2018-10-02T03:38:19.061Z,5.27
2018-10-02T03:40:48.193Z,4.97
2018-10-02T03:43:17.230Z,4.97
2018-10-02T03:45:46.335Z,4.57
2018-10-02T03:48:15.440Z,5.03
2018-10-02T03:50:44.462Z,4.87
2018-10-02T03:53:13.517Z,4.17
2018-10-02T03:55:42.638Z,4.47
2018-10-02T03:58:11.711Z,4.27
2018-10-02T04:00:40.827Z,4.23
2018-10-02T04:03:09.822Z,5.07
2018-10-02T04:05:46.012Z,3.90
2018-10-02T04:08:15.021Z,3.77
2018-10-02T04:10:44.046Z,4.33
2018-10-02T04:13:13.092Z,3.37
2018-10-02T04:15:42.153Z,4.20
2018-10-02T04:18:11.186Z,3.63
2018-10-02T04:20:40.354Z,3.87
2018-10-02T04:23:09.270Z,3.33
2018-10-02T04:25:38.284Z,3.40
2018-10-02T04:28:07.306Z,4.10
2018-10-02T04:30:36.426Z,3.00
2018-10-02T04:33:05.424Z,3.17
2018-10-02T04:35:34.492Z,3.03
2018-10-02T04:38:03.562Z,3.70
2018-10-02T04:40:32.738Z,3.13
2018-10-02T04:43:01.816Z,2.93
2018-10-02T04:45:30.846Z,3.33
2018-10-02T04:47:59.853Z,2.83
2018-10-02T04:50:28.934Z,3.27
2018-10-02T04:52:57.910Z,2.80
2018-10-02T04:55:26.994Z,3.10
2018-10-02T04:57:56.086Z,2.83
2018-10-02T05:00:25.235Z,3.20
2018-10-02T05:02:54.214Z,3.37
2018-10-02T05:05:23.299Z,3.00
2018-10-02T05:07:52.418Z,3.60
2018-10-02T05:10:21.564Z,3.50
2018-10-02T05:12:50.558Z,3.30
2018-10-02T05:15:19.752Z,3.10
2018-10-02T05:17:48.782Z,3.77
2018-10-02T05:20:18.524Z,3.07
2018-10-02T05:22:47.575Z,3.17
2018-10-02T05:25:16.570Z,2.70
2018-10-02T05:27:45.624Z,2.70
2018-10-02T05:30:14.608Z,3.00
2018-10-02T05:32:43.700Z,2.70
2018-10-02T05:35:12.921Z,3.10
2018-10-02T05:37:41.842Z,3.03
2018-10-02T05:40:10.962Z,3.60
2018-10-02T05:42:40.109Z,3.30
2018-10-02T05:45:09.522Z,2.90
2018-10-02T05:47:38.598Z,3.03
2018-10-02T05:50:07.638Z,2.73
2018-10-02T05:52:36.745Z,3.10
2018-10-02T05:55:05.868Z,3.10
2018-10-02T05:57:35.634Z,3.30
2018-10-02T06:00:04.718Z,3.10
2018-10-02T06:02:33.838Z,3.00
2018-10-02T06:05:02.906Z,3.20
2018-10-02T06:07:31.965Z,3.40
2018-10-02T06:10:02.307Z,3.40
2018-10-02T06:12:31.550Z,3.10
2018-10-02T06:15:00.644Z,3.67
2018-10-02T06:17:29.714Z,3.03
2018-10-02T06:19:58.853Z,3.60
2018-10-02T06:22:28.104Z,3.60
2018-10-02T06:24:57.161Z,3.47
2018-10-02T06:27:26.231Z,3.37
2018-10-02T06:29:55.352Z,4.30
2018-10-02T06:32:24.394Z,4.13
2018-10-02T06:34:53.409Z,3.10
2018-10-02T06:37:26.561Z,4.00
2018-10-02T06:39:55.545Z,3.30
2018-10-02T06:42:24.558Z,3.50
2018-10-02T06:44:53.570Z,4.07
2018-10-02T06:47:22.671Z,3.57
2018-10-02T06:49:51.759Z,3.83
2018-10-02T06:52:20.957Z,3.57
2018-10-02T06:54:49.862Z,3.70
2018-10-02T06:57:18.983Z,3.80
2018-10-02T06:59:48.030Z,4.47
2018-10-02T07:02:17.781Z,4.40
2018-10-02T07:04:46.861Z,3.93
2018-10-02T07:07:15.974Z,4.33
2018-10-02T07:09:45.007Z,4.10
2018-10-02T07:12:14.037Z,4.67
2018-10-02T07:14:43.242Z,4.20
2018-10-02T07:17:12.227Z,4.20
2018-10-02T07:19:41.429Z,3.87
2018-10-02T07:22:10.553Z,4.33
2018-10-02T07:24:39.659Z,4.50
2018-10-02T07:27:08.785Z,4.20
2018-10-02T07:29:37.811Z,5.00
2018-10-02T07:32:06.979Z,4.83
2018-10-02T07:34:35.992Z,3.60
2018-10-02T07:37:05.239Z,4.10
2018-10-02T07:39:34.285Z,5.10
2018-10-02T07:42:03.328Z,4.03
2018-10-02T07:44:44.017Z,4.97
2018-10-02T07:47:13.053Z,4.37
2018-10-02T07:49:42.213Z,5.13
2018-10-02T07:52:11.543Z,4.90
2018-10-02T07:54:40.543Z,5.70
2018-10-02T07:57:09.859Z,4.67
2018-10-02T07:59:38.896Z,6.10
2018-10-02T08:02:08.347Z,4.90
2018-10-02T08:04:37.396Z,5.50
2018-10-02T08:07:06.541Z,5.70
2018-10-02T08:09:36.647Z,6.10
2018-10-02T08:12:05.947Z,6.20
2018-10-02T08:14:34.925Z,6.97
2018-10-02T08:17:03.997Z,6.03
2018-10-02T08:19:33.047Z,6.03
2018-10-02T08:22:02.097Z,6.27
2018-10-02T08:24:31.212Z,6.13
2018-10-02T08:27:00.350Z,7.43
2018-10-02T08:29:29.828Z,7.80
2018-10-02T08:31:59.029Z,7.33
2018-10-02T08:34:28.033Z,7.17
2018-10-02T08:36:57.093Z,6.60
2018-10-02T08:39:26.549Z,7.07
2018-10-02T08:41:55.658Z,7.30
2018-10-02T08:44:24.727Z,7.33
2018-10-02T08:46:53.751Z,6.67
2018-10-02T08:49:22.880Z,6.40
2018-10-02T08:51:52.076Z,6.63
2018-10-02T08:54:21.070Z,7.30
2018-10-02T08:56:50.155Z,7.37
2018-10-02T08:59:19.155Z,8.10
2018-10-02T09:01:48.260Z,7.53
2018-10-02T09:04:17.346Z,8.10
2018-10-02T09:06:46.404Z,8.60
2018-10-02T09:09:15.435Z,7.93
2018-10-02T09:11:44.550Z,7.57
2018-10-02T09:14:13.614Z,7.60
2018-10-02T09:16:42.784Z,7.57
2018-10-02T09:19:11.828Z,7.07
2018-10-02T09:21:40.871Z,7.23
2018-10-02T09:24:09.906Z,6.93
2018-10-02T09:26:38.992Z,7.10
2018-10-02T09:29:08.388Z,7.57
2018-10-02T09:31:42.685Z,6.60
2018-10-02T09:34:17.141Z,7.27
2018-10-02T09:36:51.631Z,7.43
2018-10-02T09:39:26.062Z,6.77
2018-10-02T09:42:00.540Z,6.73
2018-10-02T09:44:29.558Z,6.53
2018-10-02T09:46:58.510Z,5.80
2018-10-02T09:49:27.522Z,6.23
2018-10-02T09:51:56.681Z,5.97
2018-10-02T09:54:25.742Z,5.63
2018-10-02T09:56:54.818Z,5.40
2018-10-02T09:59:23.862Z,4.90
2018-10-02T10:01:58.390Z,4.43
2018-10-02T10:04:27.524Z,5.20
2018-10-02T10:06:56.405Z,4.80
2018-10-02T10:09:25.453Z,4.53
2018-10-02T10:11:54.641Z,4.70
2018-10-02T10:14:23.809Z,4.57
2018-10-02T10:16:52.880Z,5.10
2018-10-02T10:19:21.794Z,4.73
2018-10-02T10:21:50.841Z,4.83
2018-10-02T10:24:19.869Z,4.40
2018-10-02T10:26:48.909Z,4.27
2018-10-02T10:29:17.881Z,4.37
2018-10-02T10:31:46.901Z,4.30
2018-10-02T10:34:16.068Z,4.33
2018-10-02T10:36:45.031Z,4.57
2018-10-02T10:39:14.023Z,4.80
2018-10-02T10:41:44.005Z,4.57
2018-10-02T10:44:13.101Z,4.27
2018-10-02T10:46:42.239Z,4.33
2018-10-02T10:49:11.229Z,5.17
2018-10-02T10:51:40.201Z,5.17
2018-10-02T10:54:10.737Z,5.07
2018-10-02T10:56:39.775Z,5.77
2018-10-02T10:59:08.805Z,5.53
2018-10-02T11:01:37.897Z,5.27
2018-10-02T11:04:07.409Z,6.03
2018-10-02T11:06:36.499Z,5.43
2018-10-02T11:09:07.953Z,5.93
2018-10-02T11:11:37.165Z,5.83
2018-10-02T11:14:06.638Z,6.37
2018-10-02T11:16:35.634Z,6.63
2018-10-02T11:19:04.749Z,7.10
2018-10-02T11:21:33.822Z,7.10
2018-10-02T11:24:02.960Z,7.50
2018-10-02T11:26:32.013Z,7.43
2018-10-02T11:29:01.107Z,7.90
2018-10-02T11:31:30.219Z,8.90
2018-10-02T11:33:59.336Z,9.00
2018-10-02T11:36:28.407Z,9.37
2018-10-02T11:38:57.461Z,9.33
2018-10-02T11:41:26.461Z,10.10
2018-10-02T11:43:55.506Z,9.90
2018-10-02T11:46:24.515Z,10.13
2018-10-02T11:48:53.631Z,9.97
2018-10-02T11:51:22.706Z,9.50
2018-10-02T11:53:52.547Z,10.03
2018-10-02T11:56:21.548Z,10.83
2018-10-02T11:58:50.560Z,10.20
2018-10-02T12:01:19.747Z,10.37
2018-10-02T12:04:03.219Z,10.47
2018-10-02T12:06:32.273Z,11.07
2018-10-02T12:09:01.339Z,11.53
2018-10-02T12:11:30.446Z,11.90
2018-10-02T12:13:59.607Z,12.00
2018-10-02T12:16:28.682Z,11.97
2018-10-02T12:18:57.776Z,11.00
2018-10-02T12:21:26.756Z,12.03
2018-10-02T12:23:55.798Z,11.73
2018-10-02T12:26:24.862Z,11.70
2018-10-02T12:28:53.853Z,12.23
2018-10-02T12:31:22.907Z,12.47
2018-10-02T12:33:51.961Z,12.30
2018-10-02T12:36:21.038Z,12.90
2018-10-02T12:38:50.161Z,12.37
2018-10-02T12:41:19.190Z,11.40
2018-10-02T12:43:48.238Z,12.17
2018-10-02T12:46:17.567Z,12.70
2018-10-02T12:48:46.874Z,12.37
2018-10-02T12:51:16.012Z,11.50
2018-10-02T12:53:45.016Z,11.70
2018-10-02T12:56:14.031Z,11.30
2018-10-02T12:58:43.010Z,11.03
2018-10-02T13:01:12.063Z,11.97
2018-10-02T13:03:41.082Z,12.10
2018-10-02T13:06:10.104Z,11.63
2018-10-02T13:08:39.280Z,11.50
2018-10-02T13:11:08.367Z,11.63
2018-10-02T13:13:37.764Z,11.50
2018-10-02T13:16:06.930Z,11.40
2018-10-02T13:18:35.939Z,11.17
2018-10-02T13:21:04.946Z,11.13
2018-10-02T13:23:34.078Z,11.40
2018-10-02T13:26:03.144Z,11.93
2018-10-02T13:28:32.274Z,10.50
2018-10-02T13:31:01.378Z,10.97
2018-10-02T13:33:30.757Z,10.63
2018-10-02T13:35:59.879Z,9.80
2018-10-02T13:38:28.939Z,11.37
2018-10-02T13:40:58.103Z,9.60
2018-10-02T13:43:27.118Z,9.70
2018-10-02T13:45:56.237Z,9.83
2018-10-02T13:48:25.218Z,9.70
2018-10-02T13:50:54.319Z,10.57
2018-10-02T13:53:23.381Z,9.70
2018-10-02T13:55:52.471Z,9.97
2018-10-02T13:58:21.606Z,9.23
2018-10-02T14:00:50.657Z,9.83
2018-10-02T14:03:19.673Z,10.40
2018-10-02T14:05:48.672Z,10.03
2018-10-02T14:08:17.772Z,9.53
2018-10-02T14:10:46.863Z,9.90
2018-10-02T14:13:15.983Z,8.57
2018-10-02T14:15:45.072Z,8.07
2018-10-02T14:18:14.071Z,8.87
2018-10-02T14:20:43.051Z,8.67
2018-10-02T14:23:12.119Z,8.50
2018-10-02T14:25:41.261Z,8.53
2018-10-02T14:28:10.275Z,8.37
2018-10-02T14:30:39.307Z,8.07
2018-10-02T14:33:10.210Z,8.03
2018-10-02T14:35:39.291Z,7.30
2018-10-02T14:38:08.385Z,7.53
2018-10-02T14:40:37.740Z,6.60
2018-10-02T14:43:06.966Z,6.40
2018-10-02T14:45:36.109Z,5.43
2018-10-02T14:48:05.149Z,5.47
2018-10-02T14:50:34.115Z,5.20
2018-10-02T14:53:03.201Z,5.60
2018-10-02T14:55:32.212Z,4.50
2018-10-02T14:58:01.299Z,5.10
2018-10-02T15:00:30.410Z,4.23
2018-10-02T15:02:59.460Z,4.03
2018-10-02T15:05:28.499Z,3.70
2018-10-02T15:07:57.727Z,4.53
2018-10-02T15:10:26.792Z,3.47
2018-10-02T15:12:55.840Z,3.20
2018-10-02T15:15:24.879Z,3.30
2018-10-02T15:17:53.869Z,3.33
2018-10-02T15:20:22.986Z,3.47
2018-10-02T15:22:52.069Z,3.37
2018-10-02T15:25:21.158Z,2.80
2018-10-02T15:27:50.154Z,3.20
2018-10-02T15:30:19.226Z,3.97
2018-10-02T15:32:48.230Z,3.93
2018-10-02T15:35:17.253Z,3.80
2018-10-02T15:37:46.458Z,3.73
2018-10-02T15:40:15.510Z,3.50
2018-10-02T15:42:44.514Z,3.97
2018-10-02T15:45:13.606Z,4.03
2018-10-02T15:47:42.693Z,4.33
2018-10-02T15:50:11.806Z,4.33
2018-10-02T15:52:40.862Z,4.20
2018-10-02T15:55:09.858Z,4.40
2018-10-02T15:57:38.988Z,3.80
2018-10-02T16:00:08.059Z,3.80
2018-10-02T16:02:37.102Z,4.33
2018-10-02T16:05:06.614Z,4.37
2018-10-02T16:07:35.642Z,4.17
2018-10-02T16:10:04.900Z,4.30
2018-10-02T16:12:33.866Z,3.97
2018-10-02T16:15:03.030Z,4.53
2018-10-02T16:17:32.018Z,4.63
2018-10-02T16:20:01.038Z,4.63
2018-10-02T16:22:30.039Z,4.40
2018-10-02T16:24:59.661Z,4.93
2018-10-02T16:27:28.642Z,5.03
2018-10-02T16:29:57.708Z,4.40
2018-10-02T16:32:26.736Z,5.03
2018-10-02T16:34:55.911Z,4.93
2018-10-02T16:37:24.856Z,4.80
2018-10-02T16:39:53.819Z,4.60
2018-10-02T16:42:23.216Z,5.40
2018-10-02T16:44:52.328Z,5.33
2018-10-02T16:47:22.345Z,4.70
2018-10-02T16:49:51.394Z,5.17
2018-10-02T16:52:20.415Z,5.73
2018-10-02T16:54:49.894Z,5.40
2018-10-02T16:57:19.002Z,5.10
2018-10-02T16:59:47.981Z,5.43
2018-10-02T17:02:16.978Z,5.40
2018-10-02T17:04:46.001Z,5.60
2018-10-02T17:07:15.037Z,5.40
2018-10-02T17:09:44.100Z,5.60
2018-10-02T17:12:13.184Z,6.00
2018-10-02T17:14:42.225Z,6.57
2018-10-02T17:17:11.355Z,6.10
2018-10-02T17:19:40.358Z,5.87
2018-10-02T17:22:09.351Z,6.20
2018-10-02T17:24:38.473Z,6.53
2018-10-02T17:27:07.558Z,6.40
2018-10-02T17:29:36.651Z,7.87
2018-10-02T17:32:05.785Z,6.87
2018-10-02T17:34:34.860Z,7.33
2018-10-02T17:37:03.829Z,7.70
2018-10-02T17:39:32.961Z,8.03
2018-10-02T17:42:01.953Z,8.17
2018-10-02T17:44:31.010Z,9.03
2018-10-02T17:47:00.107Z,8.67
2018-10-02T17:49:29.209Z,7.97
2018-10-02T17:51:58.183Z,8.50
2018-10-02T17:54:27.158Z,9.07
2018-10-02T17:56:56.192Z,8.60
2018-10-02T17:59:25.341Z,8.67
2018-10-02T18:01:54.467Z,8.47
2018-10-02T18:04:23.560Z,9.10
2018-10-02T18:06:52.638Z,9.60
2018-10-02T18:09:21.672Z,9.43
2018-10-02T18:11:50.630Z,9.10
2018-10-02T18:14:19.618Z,8.80
2018-10-02T18:16:48.662Z,9.53
2018-10-02T18:19:17.766Z,9.07
2018-10-02T18:21:46.874Z,8.90
2018-10-02T18:24:17.926Z,9.97
2018-10-02T18:26:47.858Z,9.70
2018-10-02T18:29:16.873Z,10.00
2018-10-02T18:31:45.974Z,9.57
2018-10-02T18:34:15.058Z,8.97
2018-10-02T18:36:44.290Z,9.50
2018-10-02T18:39:13.336Z,9.23
2018-10-02T18:41:42.338Z,9.67
2018-10-02T18:44:11.320Z,9.10
2018-10-02T18:46:40.934Z,9.17
2018-10-02T18:49:09.961Z,9.87
2018-10-02T18:51:39.022Z,10.00
2018-10-02T18:54:08.010Z,10.40
2018-10-02T18:56:37.074Z,9.83
2018-10-02T18:59:06.134Z,10.30
2018-10-02T19:01:35.206Z,9.50
2018-10-02T19:04:04.374Z,10.37
2018-10-02T19:06:33.382Z,9.87
2018-10-02T19:09:07.902Z,10.93
2018-10-02T19:11:42.366Z,10.60
2018-10-02T19:14:11.474Z,10.83
2018-10-02T19:16:40.466Z,10.50
2018-10-02T19:19:13.838Z,10.30
2018-10-02T19:21:42.842Z,11.70
2018-10-02T19:24:11.900Z,11.63
2018-10-02T19:26:50.117Z,11.20
2018-10-02T19:29:19.156Z,11.27
2018-10-02T19:31:53.742Z,11.57
2018-10-02T19:34:22.754Z,10.77
2018-10-02T19:36:51.728Z,11.60
2018-10-02T19:39:22.796Z,11.77
2018-10-02T19:41:52.058Z,12.17
2018-10-02T19:44:21.086Z,11.90
2018-10-02T19:46:54.532Z,12.10
2018-10-02T19:49:25.086Z,11.13
2018-10-02T19:52:00.866Z,11.97
2018-10-02T19:54:30.150Z,11.37
2018-10-02T19:56:59.235Z,12.47
2018-10-02T19:59:42.638Z,13.23
2018-10-02T20:02:11.649Z,11.70
2018-10-02T20:04:40.746Z,12.00
2018-10-02T20:07:09.766Z,12.43
2018-10-02T20:09:38.909Z,12.77
2018-10-02T20:12:07.949Z,12.20
2018-10-02T20:14:37.082Z,12.90
2018-10-02T20:17:06.461Z,12.60
2018-10-02T20:19:35.565Z,12.83
2018-10-02T20:22:07.721Z,12.43
2018-10-02T20:24:37.801Z,12.53
2018-10-02T20:27:06.872Z,13.03
2018-10-02T20:29:35.833Z,13.53
2018-10-02T20:32:04.947Z,14.83
2018-10-02T20:34:34.019Z,14.37
2018-10-02T20:37:03.111Z,14.53
2018-10-02T20:39:32.229Z,14.73
2018-10-02T20:42:01.205Z,14.77
2018-10-02T20:44:30.189Z,14.43
2018-10-02T20:46:59.309Z,14.13
2018-10-02T20:49:28.400Z,14.03
2018-10-02T20:51:57.459Z,14.47
2018-10-02T20:54:26.597Z,14.70
2018-10-02T20:56:55.776Z,14.77
2018-10-02T20:59:25.229Z,14.57
2018-10-02T21:01:54.259Z,16.17
2018-10-02T21:04:23.328Z,15.60
2018-10-02T21:06:52.320Z,16.10
2018-10-02T21:09:21.323Z,15.20
2018-10-02T21:11:50.323Z,15.20
2018-10-02T21:14:19.383Z,15.77
2018-10-02T21:16:48.461Z,15.07
2018-10-02T21:19:17.506Z,15.43
2018-10-02T21:21:46.550Z,15.77
2018-10-02T21:24:15.589Z,15.20
2018-10-02T21:26:44.626Z,15.57
2018-10-02T21:29:13.683Z,16.97
2018-10-02T21:31:42.945Z,16.17
2018-10-02T21:34:11.874Z,17.10
2018-10-02T21:36:40.855Z,16.37
2018-10-02T21:39:10.499Z,15.77
2018-10-02T21:41:40.629Z,15.83
2018-10-02T21:44:09.631Z,16.00
2018-10-02T21:46:38.689Z,15.70
2018-10-02T21:49:07.993Z,15.57
2018-10-02T21:51:44.155Z,14.97
2018-10-02T21:54:13.245Z,15.73
2018-10-02T21:56:42.331Z,14.40
2018-10-02T21:59:11.341Z,13.63
2018-10-02T22:01:41.081Z,13.40
2018-10-02T22:04:10.145Z,11.80
2018-10-02T22:06:39.237Z,11.10
2018-10-02T22:09:09.577Z,11.40
2018-10-02T22:11:38.773Z,11.20
2018-10-02T22:14:07.762Z,11.70
2018-10-02T22:16:36.917Z,11.23
2018-10-02T22:19:05.992Z,11.80
2018-10-02T22:21:35.011Z,11.37
2018-10-02T22:24:04.103Z,11.67
2018-10-02T22:26:33.035Z,10.93
2018-10-02T22:29:05.195Z,10.93
2018-10-02T22:31:34.296Z,12.07
2018-10-02T22:34:03.444Z,11.40
2018-10-02T22:36:32.481Z,10.90
2018-10-02T22:39:01.491Z,10.47
2018-10-02T22:41:30.498Z,11.13
2018-10-02T22:43:59.554Z,9.50
2018-10-02T22:46:28.558Z,9.60
2018-10-02T22:48:57.700Z,10.53
2018-10-02T22:51:27.347Z,10.07
2018-10-02T22:53:56.394Z,10.47
2018-10-02T22:56:25.478Z,9.53
2018-10-02T22:58:54.734Z,9.90
2018-10-02T23:01:23.846Z,8.57
2018-10-02T23:03:53.147Z,9.50
2018-10-02T23:06:22.214Z,8.80
2018-10-02T23:08:51.210Z,9.30
2018-10-02T23:11:20.252Z,8.77
2018-10-02T23:13:49.290Z,8.63
2018-10-02T23:16:18.294Z,8.97
2018-10-02T23:18:47.302Z,8.27
2018-10-02T23:21:16.418Z,8.70
2018-10-02T23:23:45.485Z,8.50
2018-10-02T23:26:14.485Z,7.20
2018-10-02T23:28:43.510Z,7.63
2018-10-02T23:31:12.585Z,7.70
2018-10-02T23:33:41.661Z,7.30
2018-10-02T23:36:10.697Z,7.57
2018-10-02T23:38:39.762Z,6.53
2018-10-02T23:41:09.629Z,6.87
2018-10-02T23:43:38.703Z,6.90
2018-10-02T23:46:07.777Z,6.20
2018-10-02T23:48:36.829Z,6.27
2018-10-02T23:51:06.407Z,6.07
2018-10-02T23:53:35.815Z,6.63
2018-10-02T23:56:05.103Z,6.43
2018-10-02T23:58:34.073Z,6.17
